Skip Navigation Links Skip Navigation Links

Current Weather

Beauvechain, Belgium

For information only: do not use for flight planning or navigation.
Latest weather
Observation time Tuesday, October 19, 2021 10:55 AM CEST
Local time Tuesday, October 19, 2021 11:11 AM CEST
Flight conditions Low Instrument Meteorological Conditions
Winds
Wind direction South-Southwest (210°)
Wind speed 15 mph
Visibility 1.2 mi.
Present weather RADZ
Sky condition
Ceiling 300 ft. broken clouds
Cloud layer broken clouds 300 ft.
Cloud layer overcast 600 ft.
Temperature 61°F
Dewpoint 59°F
Altimeter 30.06 in.Hg
Derived measurements
Relative humidity 94%
Density altitude 298 ft.
METAR EBBE 190855Z 21013KT 2000 -RADZ BKN003 OVC006 16/15 Q1018 YLO YLO

Settings

Location code

InnerDrive.Weather 4.0.6770.0 Release CLR 4.0.30319.42000
Copyright ©2018 Inner Drive Technology. All rights reserved. Portions Copyright ©1986-2018 David Braverman.

Find weather

Site navigation


Skip Navigation Links

Place info

Page info

PayPal - The safer, easier way to pay online!

Return home.

Copyright ©2021 Inner Drive Technology. Purveyors of fine, hand-crafted computer software. Page printed 2021-10-19T09:11:04 UTC.